Current Weather

Falcon Fld

Mesa, Arizona (KFFZ)

Report from: Sunday, June 26, 2022 9:54 AM MST
Current time: Sunday, June 26, 2022 10:37 AM MST

Nearby weather
Weather history
Weather forecast

Temperature35.0°C (95.0°F)
Heat index34.1°C (93.4°F)
Dew point13.3°C (55.9°F)
Winds 9 kts (4.6 m/s, 10.4 mph) Southeast (140°)
Visibility10 mi. (16.1 km)
Clouds Sky clear
Altimeter30.02 in.Hg (1017 mB)
Relative humidity27 %
Density altitude2,372 ft. (723 m)
Sea-level pressure101.4 kPa (1014 mB, 29.93 in.Hg)
Remarks Fully automated report
System requires maintenance
Automated weather observing station with precipitation discriminator
Lightning detection system not operating
Flight conditions Visual Meteorological Conditions
Raw dataKFFZ 261654Z AUTO 14009KT 10SM CLR 35/13 A3002 RMK AO2 SLP137 T03500133 TSNO $
An error has occurred. This application may no longer respond until reloaded. Reload 🗙